sensor_id;sensor_type;location;lat;lon;timestamp;temperature;humidity
1025;DHT22;501;48.214;11.350;2024-01-25T00:02:05;8.10;47.00
1025;DHT22;501;48.214;11.350;2024-01-25T00:04:30;8.10;47.30
1025;DHT22;501;48.214;11.350;2024-01-25T00:06:56;8.10;48.00
1025;DHT22;501;48.214;11.350;2024-01-25T00:09:21;8.10;48.40
1025;DHT22;501;48.214;11.350;2024-01-25T00:11:47;8.10;48.40
1025;DHT22;501;48.214;11.350;2024-01-25T00:14:13;8.00;49.10
1025;DHT22;501;48.214;11.350;2024-01-25T00:16:42;8.00;49.40
1025;DHT22;501;48.214;11.350;2024-01-25T00:19:08;8.00;49.80
1025;DHT22;501;48.214;11.350;2024-01-25T00:21:33;8.00;50.80
1025;DHT22;501;48.214;11.350;2024-01-25T00:23:59;8.00;51.20
1025;DHT22;501;48.214;11.350;2024-01-25T00:26:25;8.00;51.40
1025;DHT22;501;48.214;11.350;2024-01-25T00:28:50;8.00;51.90
1025;DHT22;501;48.214;11.350;2024-01-25T00:31:16;8.00;51.90
1025;DHT22;501;48.214;11.350;2024-01-25T00:33:42;8.00;51.70
1025;DHT22;501;48.214;11.350;2024-01-25T00:36:08;8.00;51.90
1025;DHT22;501;48.214;11.350;2024-01-25T00:38:34;8.00;52.30
1025;DHT22;501;48.214;11.350;2024-01-25T00:41:00;8.00;52.30
1025;DHT22;501;48.214;11.350;2024-01-25T00:43:26;8.00;52.10
1025;DHT22;501;48.214;11.350;2024-01-25T00:45:52;8.00;52.20
1025;DHT22;501;48.214;11.350;2024-01-25T00:48:18;8.00;52.10
1025;DHT22;501;48.214;11.350;2024-01-25T00:50:44;8.00;52.40
1025;DHT22;501;48.214;11.350;2024-01-25T00:53:10;8.00;52.00
1025;DHT22;501;48.214;11.350;2024-01-25T00:55:36;8.00;51.50
1025;DHT22;501;48.214;11.350;2024-01-25T00:58:02;8.00;51.40
1025;DHT22;501;48.214;11.350;2024-01-25T01:00:28;8.00;51.00
1025;DHT22;501;48.214;11.350;2024-01-25T01:02:54;8.10;50.80
1025;DHT22;501;48.214;11.350;2024-01-25T01:05:21;8.10;50.20
1025;DHT22;501;48.214;11.350;2024-01-25T01:07:47;8.10;50.00
1025;DHT22;501;48.214;11.350;2024-01-25T01:10:13;8.10;49.90
1025;DHT22;501;48.214;11.350;2024-01-25T01:12:39;8.10;50.10
1025;DHT22;501;48.214;11.350;2024-01-25T01:15:05;8.10;48.30
1025;DHT22;501;48.214;11.350;2024-01-25T01:17:31;8.20;48.40
1025;DHT22;501;48.214;11.350;2024-01-25T01:19:56;8.10;48.40
1025;DHT22;501;48.214;11.350;2024-01-25T01:22:22;8.20;48.40
1025;DHT22;501;48.214;11.350;2024-01-25T01:24:47;8.20;48.30
1025;DHT22;501;48.214;11.350;2024-01-25T01:27:13;8.30;48.20
1025;DHT22;501;48.214;11.350;2024-01-25T01:29:39;8.30;48.00
1025;DHT22;501;48.214;11.350;2024-01-25T01:32:05;8.30;48.30
1025;DHT22;501;48.214;11.350;2024-01-25T01:34:31;8.30;48.40
1025;DHT22;501;48.214;11.350;2024-01-25T01:36:56;8.30;47.70
1025;DHT22;501;48.214;11.350;2024-01-25T01:39:22;8.30;47.80
1025;DHT22;501;48.214;11.350;2024-01-25T01:41:48;8.30;48.40
1025;DHT22;501;48.214;11.350;2024-01-25T01:44:15;8.30;48.30
1025;DHT22;501;48.214;11.350;2024-01-25T01:46:40;8.30;48.50
1025;DHT22;501;48.214;11.350;2024-01-25T01:49:08;8.30;48.50
1025;DHT22;501;48.214;11.350;2024-01-25T01:51:35;8.30;48.50
1025;DHT22;501;48.214;11.350;2024-01-25T01:54:01;8.30;48.30
1025;DHT22;501;48.214;11.350;2024-01-25T01:56:28;8.30;47.60
1025;DHT22;501;48.214;11.350;2024-01-25T01:58:57;8.30;47.90
1025;DHT22;501;48.214;11.350;2024-01-25T02:01:24;8.30;48.50
1025;DHT22;501;48.214;11.350;2024-01-25T02:03:50;8.30;48.20
1025;DHT22;501;48.214;11.350;2024-01-25T02:06:15;8.20;48.40
1025;DHT22;501;48.214;11.350;2024-01-25T02:08:41;8.20;48.40
1025;DHT22;501;48.214;11.350;2024-01-25T02:11:07;8.30;48.50
1025;DHT22;501;48.214;11.350;2024-01-25T02:13:34;8.20;48.40
1025;DHT22;501;48.214;11.350;2024-01-25T02:16:00;8.20;48.40
1025;DHT22;501;48.214;11.350;2024-01-25T02:18:26;8.20;48.40
1025;DHT22;501;48.214;11.350;2024-01-25T02:20:52;8.20;48.40
1025;DHT22;501;48.214;11.350;2024-01-25T02:23:18;8.20;48.40
1025;DHT22;501;48.214;11.350;2024-01-25T02:25:43;8.20;48.80
1025;DHT22;501;48.214;11.350;2024-01-25T02:28:09;8.30;48.50
1025;DHT22;501;48.214;11.350;2024-01-25T02:30:34;8.30;48.50
1025;DHT22;501;48.214;11.350;2024-01-25T02:33:00;8.20;48.80
1025;DHT22;501;48.214;11.350;2024-01-25T02:35:26;8.20;49.00
1025;DHT22;501;48.214;11.350;2024-01-25T02:37:51;8.20;49.60
1025;DHT22;501;48.214;11.350;2024-01-25T02:40:17;8.20;49.20
1025;DHT22;501;48.214;11.350;2024-01-25T02:42:43;8.20;49.70
1025;DHT22;501;48.214;11.350;2024-01-25T02:45:08;8.20;50.20
1025;DHT22;501;48.214;11.350;2024-01-25T02:47:34;8.20;50.40
1025;DHT22;501;48.214;11.350;2024-01-25T02:50:00;8.20;50.60
1025;DHT22;501;48.214;11.350;2024-01-25T02:52:25;8.10;51.10
1025;DHT22;501;48.214;11.350;2024-01-25T02:54:51;8.10;51.00
1025;DHT22;501;48.214;11.350;2024-01-25T02:57:17;8.10;51.20
1025;DHT22;501;48.214;11.350;2024-01-25T02:59:42;8.10;51.50
1025;DHT22;501;48.214;11.350;2024-01-25T03:02:08;8.10;51.90
1025;DHT22;501;48.214;11.350;2024-01-25T03:04:33;8.10;51.90
1025;DHT22;501;48.214;11.350;2024-01-25T03:06:59;8.10;51.60
1025;DHT22;501;48.214;11.350;2024-01-25T03:09:25;8.10;51.30
1025;DHT22;501;48.214;11.350;2024-01-25T03:11:50;8.10;51.40
1025;DHT22;501;48.214;11.350;2024-01-25T03:14:16;8.20;51.10
1025;DHT22;501;48.214;11.350;2024-01-25T03:16:41;8.20;51.00
1025;DHT22;501;48.214;11.350;2024-01-25T03:19:09;8.20;51.10
1025;DHT22;501;48.214;11.350;2024-01-25T03:21:35;8.20;51.00
1025;DHT22;501;48.214;11.350;2024-01-25T03:24:01;8.20;50.60
1025;DHT22;501;48.214;11.350;2024-01-25T03:26:27;8.20;50.90
1025;DHT22;501;48.214;11.350;2024-01-25T03:28:53;8.30;50.90
1025;DHT22;501;48.214;11.350;2024-01-25T03:31:19;8.30;50.70
1025;DHT22;501;48.214;11.350;2024-01-25T03:33:44;8.20;51.00
1025;DHT22;501;48.214;11.350;2024-01-25T03:36:13;8.20;51.20
1025;DHT22;501;48.214;11.350;2024-01-25T03:38:39;8.20;51.40
1025;DHT22;501;48.214;11.350;2024-01-25T03:41:05;8.20;51.70
1025;DHT22;501;48.214;11.350;2024-01-25T03:43:30;8.20;52.30
1025;DHT22;501;48.214;11.350;2024-01-25T03:45:56;8.20;52.10
1025;DHT22;501;48.214;11.350;2024-01-25T03:48:21;8.20;52.30
1025;DHT22;501;48.214;11.350;2024-01-25T03:50:47;8.10;51.80
1025;DHT22;501;48.214;11.350;2024-01-25T03:53:13;8.10;52.20
1025;DHT22;501;48.214;11.350;2024-01-25T03:55:39;8.20;51.70
1025;DHT22;501;48.214;11.350;2024-01-25T03:58:06;8.20;51.70
1025;DHT22;501;48.214;11.350;2024-01-25T04:00:31;8.20;51.40
1025;DHT22;501;48.214;11.350;2024-01-25T04:02:57;8.20;51.20
1025;DHT22;501;48.214;11.350;2024-01-25T04:05:22;8.20;51.30
1025;DHT22;501;48.214;11.350;2024-01-25T04:07:48;8.20;50.90
1025;DHT22;501;48.214;11.350;2024-01-25T04:10:14;8.20;50.50
1025;DHT22;501;48.214;11.350;2024-01-25T04:12:40;8.20;50.80
1025;DHT22;501;48.214;11.350;2024-01-25T04:15:06;8.20;51.10
1025;DHT22;501;48.214;11.350;2024-01-25T04:17:31;8.20;51.40
1025;DHT22;501;48.214;11.350;2024-01-25T04:19:57;8.20;51.30
1025;DHT22;501;48.214;11.350;2024-01-25T04:22:23;8.20;51.80
1025;DHT22;501;48.214;11.350;2024-01-25T04:24:48;8.20;52.30
1025;DHT22;501;48.214;11.350;2024-01-25T04:27:15;8.20;52.50
1025;DHT22;501;48.214;11.350;2024-01-25T04:29:41;8.20;52.50
1025;DHT22;501;48.214;11.350;2024-01-25T04:32:10;8.20;52.80
1025;DHT22;501;48.214;11.350;2024-01-25T04:34:36;8.20;52.70
1025;DHT22;501;48.214;11.350;2024-01-25T04:37:02;8.20;52.60
1025;DHT22;501;48.214;11.350;2024-01-25T04:39:27;8.20;52.70
1025;DHT22;501;48.214;11.350;2024-01-25T04:41:53;8.20;52.80
1025;DHT22;501;48.214;11.350;2024-01-25T04:44:19;8.20;52.80
1025;DHT22;501;48.214;11.350;2024-01-25T04:46:44;8.20;52.80
1025;DHT22;501;48.214;11.350;2024-01-25T04:49:10;8.10;53.10
1025;DHT22;501;48.214;11.350;2024-01-25T04:51:35;8.10;53.20
1025;DHT22;501;48.214;11.350;2024-01-25T04:54:01;8.10;52.80
1025;DHT22;501;48.214;11.350;2024-01-25T04:56:28;8.10;52.90
1025;DHT22;501;48.214;11.350;2024-01-25T04:58:53;8.10;53.30
1025;DHT22;501;48.214;11.350;2024-01-25T05:01:19;8.10;53.60
1025;DHT22;501;48.214;11.350;2024-01-25T05:03:44;8.10;53.80
1025;DHT22;501;48.214;11.350;2024-01-25T05:06:10;8.10;53.70
1025;DHT22;501;48.214;11.350;2024-01-25T05:08:36;8.10;54.20
1025;DHT22;501;48.214;11.350;2024-01-25T05:11:01;8.10;54.40
1025;DHT22;501;48.214;11.350;2024-01-25T05:13:27;8.10;54.60
1025;DHT22;501;48.214;11.350;2024-01-25T05:15:52;8.10;54.00
1025;DHT22;501;48.214;11.350;2024-01-25T05:18:18;8.10;53.80
1025;DHT22;501;48.214;11.350;2024-01-25T05:20:44;8.10;53.90
1025;DHT22;501;48.214;11.350;2024-01-25T05:23:09;8.10;54.50
1025;DHT22;501;48.214;11.350;2024-01-25T05:25:35;8.00;54.70
1025;DHT22;501;48.214;11.350;2024-01-25T05:28:00;8.00;54.20
1025;DHT22;501;48.214;11.350;2024-01-25T05:30:27;8.00;54.80
1025;DHT22;501;48.214;11.350;2024-01-25T05:32:52;8.00;54.80
1025;DHT22;501;48.214;11.350;2024-01-25T05:35:20;8.00;55.40
1025;DHT22;501;48.214;11.350;2024-01-25T05:37:45;8.00;55.30
1025;DHT22;501;48.214;11.350;2024-01-25T05:40:11;7.90;55.20
1025;DHT22;501;48.214;11.350;2024-01-25T05:42:37;7.90;55.50
1025;DHT22;501;48.214;11.350;2024-01-25T05:45:03;7.90;55.50
1025;DHT22;501;48.214;11.350;2024-01-25T05:47:30;7.90;55.10
1025;DHT22;501;48.214;11.350;2024-01-25T05:49:56;7.90;55.00
1025;DHT22;501;48.214;11.350;2024-01-25T05:52:22;7.90;55.00
1025;DHT22;501;48.214;11.350;2024-01-25T05:54:48;7.90;55.10
1025;DHT22;501;48.214;11.350;2024-01-25T05:57:14;8.00;54.90
1025;DHT22;501;48.214;11.350;2024-01-25T05:59:40;8.00;54.80
1025;DHT22;501;48.214;11.350;2024-01-25T06:02:06;7.90;54.70
1025;DHT22;501;48.214;11.350;2024-01-25T06:04:33;8.00;54.10
1025;DHT22;501;48.214;11.350;2024-01-25T06:06:58;8.00;53.40
1025;DHT22;501;48.214;11.350;2024-01-25T06:09:24;8.00;54.00
1025;DHT22;501;48.214;11.350;2024-01-25T06:11:50;7.90;53.80
1025;DHT22;501;48.214;11.350;2024-01-25T06:14:16;8.00;53.60
1025;DHT22;501;48.214;11.350;2024-01-25T06:16:42;7.90;54.30
1025;DHT22;501;48.214;11.350;2024-01-25T06:19:08;7.90;53.90
1025;DHT22;501;48.214;11.350;2024-01-25T06:21:34;7.90;53.90
1025;DHT22;501;48.214;11.350;2024-01-25T06:24:01;7.90;53.90
1025;DHT22;501;48.214;11.350;2024-01-25T06:26:27;7.90;53.30
1025;DHT22;501;48.214;11.350;2024-01-25T06:28:53;7.80;53.20
1025;DHT22;501;48.214;11.350;2024-01-25T06:31:18;7.80;53.40
1025;DHT22;501;48.214;11.350;2024-01-25T06:33:44;7.70;53.40
1025;DHT22;501;48.214;11.350;2024-01-25T06:36:14;7.70;53.20
1025;DHT22;501;48.214;11.350;2024-01-25T06:38:40;7.60;53.50
1025;DHT22;501;48.214;11.350;2024-01-25T06:41:07;7.60;53.60
1025;DHT22;501;48.214;11.350;2024-01-25T06:43:32;7.60;53.70
1025;DHT22;501;48.214;11.350;2024-01-25T06:45:58;7.50;53.70
1025;DHT22;501;48.214;11.350;2024-01-25T06:48:23;7.50;53.90
1025;DHT22;501;48.214;11.350;2024-01-25T06:50:49;7.50;54.10
1025;DHT22;501;48.214;11.350;2024-01-25T06:53:16;7.40;54.20
1025;DHT22;501;48.214;11.350;2024-01-25T06:55:42;7.40;54.10
1025;DHT22;501;48.214;11.350;2024-01-25T06:58:08;7.40;54.00
1025;DHT22;501;48.214;11.350;2024-01-25T07:00:34;7.40;54.20
1025;DHT22;501;48.214;11.350;2024-01-25T07:03:00;7.30;53.90
1025;DHT22;501;48.214;11.350;2024-01-25T07:05:25;7.30;54.10
1025;DHT22;501;48.214;11.350;2024-01-25T07:07:52;7.30;54.20
1025;DHT22;501;48.214;11.350;2024-01-25T07:10:18;7.30;54.10
1025;DHT22;501;48.214;11.350;2024-01-25T07:12:43;7.20;54.00
1025;DHT22;501;48.214;11.350;2024-01-25T07:15:09;7.20;54.00
1025;DHT22;501;48.214;11.350;2024-01-25T07:17:35;7.20;54.40
1025;DHT22;501;48.214;11.350;2024-01-25T07:20:01;7.20;54.50
1025;DHT22;501;48.214;11.350;2024-01-25T07:22:26;7.10;54.80
1025;DHT22;501;48.214;11.350;2024-01-25T07:24:52;7.10;54.80
1025;DHT22;501;48.214;11.350;2024-01-25T07:27:17;7.10;55.00
1025;DHT22;501;48.214;11.350;2024-01-25T07:29:44;7.10;54.70
1025;DHT22;501;48.214;11.350;2024-01-25T07:32:12;7.10;54.80
1025;DHT22;501;48.214;11.350;2024-01-25T07:34:38;7.10;55.00
1025;DHT22;501;48.214;11.350;2024-01-25T07:37:04;7.10;55.20
1025;DHT22;501;48.214;11.350;2024-01-25T07:39:29;7.00;54.60
1025;DHT22;501;48.214;11.350;2024-01-25T07:41:55;7.00;54.70
1025;DHT22;501;48.214;11.350;2024-01-25T07:44:21;7.00;54.90
1025;DHT22;501;48.214;11.350;2024-01-25T07:46:46;7.00;55.80
1025;DHT22;501;48.214;11.350;2024-01-25T07:49:12;7.00;56.00
1025;DHT22;501;48.214;11.350;2024-01-25T07:51:38;7.10;56.00
1025;DHT22;501;48.214;11.350;2024-01-25T07:54:04;7.20;55.40
1025;DHT22;501;48.214;11.350;2024-01-25T07:56:29;7.20;54.70
1025;DHT22;501;48.214;11.350;2024-01-25T07:58:55;7.20;53.90
1025;DHT22;501;48.214;11.350;2024-01-25T08:01:21;7.30;53.00
1025;DHT22;501;48.214;11.350;2024-01-25T08:03:47;7.40;52.60
1025;DHT22;501;48.214;11.350;2024-01-25T08:06:13;7.40;51.50
1025;DHT22;501;48.214;11.350;2024-01-25T08:08:39;7.50;51.30
1025;DHT22;501;48.214;11.350;2024-01-25T08:11:05;7.50;51.70
1025;DHT22;501;48.214;11.350;2024-01-25T08:13:31;7.50;51.50
1025;DHT22;501;48.214;11.350;2024-01-25T08:15:57;7.50;50.80
1025;DHT22;501;48.214;11.350;2024-01-25T08:18:23;7.60;50.50
1025;DHT22;501;48.214;11.350;2024-01-25T08:20:49;7.60;50.90
1025;DHT22;501;48.214;11.350;2024-01-25T08:23:16;7.60;51.20
1025;DHT22;501;48.214;11.350;2024-01-25T08:25:41;7.70;51.30
1025;DHT22;501;48.214;11.350;2024-01-25T08:28:07;7.70;51.30
1025;DHT22;501;48.214;11.350;2024-01-25T08:30:33;7.70;51.40
1025;DHT22;501;48.214;11.350;2024-01-25T08:32:58;7.70;50.90
1025;DHT22;501;48.214;11.350;2024-01-25T08:35:24;7.80;50.80
1025;DHT22;501;48.214;11.350;2024-01-25T08:37:50;7.80;50.40
1025;DHT22;501;48.214;11.350;2024-01-25T08:40:16;7.70;50.70
1025;DHT22;501;48.214;11.350;2024-01-25T08:42:42;7.70;50.10
1025;DHT22;501;48.214;11.350;2024-01-25T08:45:08;7.80;49.70
1025;DHT22;501;48.214;11.350;2024-01-25T08:47:35;7.80;49.70
1025;DHT22;501;48.214;11.350;2024-01-25T08:50:01;7.80;48.50
1025;DHT22;501;48.214;11.350;2024-01-25T08:52:27;7.90;48.20
1025;DHT22;501;48.214;11.350;2024-01-25T08:54:52;7.90;45.80
1025;DHT22;501;48.214;11.350;2024-01-25T08:57:18;7.90;45.70
1025;DHT22;501;48.214;11.350;2024-01-25T08:59:44;7.80;45.20
1025;DHT22;501;48.214;11.350;2024-01-25T09:02:10;7.90;44.30
1025;DHT22;501;48.214;11.350;2024-01-25T09:04:35;8.00;43.30
1025;DHT22;501;48.214;11.350;2024-01-25T09:07:02;8.00;43.40
1025;DHT22;501;48.214;11.350;2024-01-25T09:09:28;8.10;43.10
1025;DHT22;501;48.214;11.350;2024-01-25T09:11:54;8.10;42.90
1025;DHT22;501;48.214;11.350;2024-01-25T09:14:20;8.20;41.70
1025;DHT22;501;48.214;11.350;2024-01-25T09:16:46;8.20;41.70
1025;DHT22;501;48.214;11.350;2024-01-25T09:19:11;8.20;41.40
1025;DHT22;501;48.214;11.350;2024-01-25T09:21:40;8.20;41.00
1025;DHT22;501;48.214;11.350;2024-01-25T09:24:06;8.30;40.60
1025;DHT22;501;48.214;11.350;2024-01-25T09:26:32;8.30;39.80
1025;DHT22;501;48.214;11.350;2024-01-25T09:28:58;8.30;39.70
1025;DHT22;501;48.214;11.350;2024-01-25T09:31:24;8.30;39.70
1025;DHT22;501;48.214;11.350;2024-01-25T09:33:49;8.40;39.80
1025;DHT22;501;48.214;11.350;2024-01-25T09:36:16;8.40;39.70
1025;DHT22;501;48.214;11.350;2024-01-25T09:38:43;8.40;36.80
1025;DHT22;501;48.214;11.350;2024-01-25T09:41:08;8.50;36.90
1025;DHT22;501;48.214;11.350;2024-01-25T09:43:35;8.60;36.70
1025;DHT22;501;48.214;11.350;2024-01-25T09:46:01;8.60;36.90
1025;DHT22;501;48.214;11.350;2024-01-25T09:48:27;8.60;37.30
1025;DHT22;501;48.214;11.350;2024-01-25T09:50:55;8.60;36.70
1025;DHT22;501;48.214;11.350;2024-01-25T09:53:22;8.60;37.10
1025;DHT22;501;48.214;11.350;2024-01-25T09:56:09;8.60;35.30
1025;DHT22;501;48.214;11.350;2024-01-25T09:58:43;8.60;36.60
1025;DHT22;501;48.214;11.350;2024-01-25T10:01:12;8.60;35.50
1025;DHT22;501;48.214;11.350;2024-01-25T10:03:41;8.60;34.40
1025;DHT22;501;48.214;11.350;2024-01-25T10:06:07;8.70;33.50
1025;DHT22;501;48.214;11.350;2024-01-25T10:08:34;8.70;34.30
1025;DHT22;501;48.214;11.350;2024-01-25T10:11:00;8.80;33.40
1025;DHT22;501;48.214;11.350;2024-01-25T10:13:29;8.80;33.90
1025;DHT22;501;48.214;11.350;2024-01-25T10:15:55;8.80;33.80
1025;DHT22;501;48.214;11.350;2024-01-25T10:18:25;8.90;32.70
1025;DHT22;501;48.214;11.350;2024-01-25T10:20:53;9.00;32.70
1025;DHT22;501;48.214;11.350;2024-01-25T10:23:19;9.00;32.90
1025;DHT22;501;48.214;11.350;2024-01-25T10:25:44;9.10;31.30
1025;DHT22;501;48.214;11.350;2024-01-25T10:28:10;9.10;31.30
1025;DHT22;501;48.214;11.350;2024-01-25T10:30:37;9.10;31.20
1025;DHT22;501;48.214;11.350;2024-01-25T10:33:04;9.10;31.30
1025;DHT22;501;48.214;11.350;2024-01-25T10:35:31;9.00;32.00
1025;DHT22;501;48.214;11.350;2024-01-25T10:37:57;9.00;32.80
1025;DHT22;501;48.214;11.350;2024-01-25T10:40:23;9.20;32.70
1025;DHT22;501;48.214;11.350;2024-01-25T10:42:49;9.20;32.60
1025;DHT22;501;48.214;11.350;2024-01-25T10:45:15;9.30;31.40
1025;DHT22;501;48.214;11.350;2024-01-25T10:47:42;9.40;31.50
1025;DHT22;501;48.214;11.350;2024-01-25T10:50:12;9.40;31.50
1025;DHT22;501;48.214;11.350;2024-01-25T10:52:40;9.50;31.60
1025;DHT22;501;48.214;11.350;2024-01-25T10:55:06;9.50;33.30
1025;DHT22;501;48.214;11.350;2024-01-25T10:57:38;9.60;34.50
1025;DHT22;501;48.214;11.350;2024-01-25T11:00:10;9.70;31.80
1025;DHT22;501;48.214;11.350;2024-01-25T11:02:36;9.80;30.60
1025;DHT22;501;48.214;11.350;2024-01-25T11:05:15;9.80;31.30
1025;DHT22;501;48.214;11.350;2024-01-25T11:07:45;9.80;31.90
1025;DHT22;501;48.214;11.350;2024-01-25T11:10:17;9.80;31.90
1025;DHT22;501;48.214;11.350;2024-01-25T11:12:55;9.80;31.90
1025;DHT22;501;48.214;11.350;2024-01-25T11:15:22;9.90;31.90
1025;DHT22;501;48.214;11.350;2024-01-25T11:17:53;9.90;32.00
1025;DHT22;501;48.214;11.350;2024-01-25T11:20:24;10.10;31.10
1025;DHT22;501;48.214;11.350;2024-01-25T11:23:10;10.10;31.20
1025;DHT22;501;48.214;11.350;2024-01-25T11:25:40;10.10;31.10
1025;DHT22;501;48.214;11.350;2024-01-25T11:28:06;10.20;30.40
1025;DHT22;501;48.214;11.350;2024-01-25T11:30:34;10.20;30.20
1025;DHT22;501;48.214;11.350;2024-01-25T11:33:00;10.10;30.40
1025;DHT22;501;48.214;11.350;2024-01-25T11:35:29;10.10;31.10
1025;DHT22;501;48.214;11.350;2024-01-25T11:37:55;10.10;31.10
1025;DHT22;501;48.214;11.350;2024-01-25T11:40:21;10.00;31.00
1025;DHT22;501;48.214;11.350;2024-01-25T11:42:48;9.90;32.10
1025;DHT22;501;48.214;11.350;2024-01-25T11:45:15;9.90;31.90
1025;DHT22;501;48.214;11.350;2024-01-25T11:47:42;9.90;31.90
1025;DHT22;501;48.214;11.350;2024-01-25T11:50:10;9.90;31.90
1025;DHT22;501;48.214;11.350;2024-01-25T11:52:37;10.00;31.00
1025;DHT22;501;48.214;11.350;2024-01-25T11:55:03;10.10;31.00
1025;DHT22;501;48.214;11.350;2024-01-25T11:57:31;10.10;31.60
1025;DHT22;501;48.214;11.350;2024-01-25T11:59:57;10.10;30.90
1025;DHT22;501;48.214;11.350;2024-01-25T12:02:23;10.10;31.10
1025;DHT22;501;48.214;11.350;2024-01-25T12:04:50;10.00;31.80
1025;DHT22;501;48.214;11.350;2024-01-25T12:07:16;10.00;32.00
1025;DHT22;501;48.214;11.350;2024-01-25T12:09:42;10.00;31.90
1025;DHT22;501;48.214;11.350;2024-01-25T12:12:09;9.90;33.20
1025;DHT22;501;48.214;11.350;2024-01-25T12:14:36;9.90;32.80
1025;DHT22;501;48.214;11.350;2024-01-25T12:17:03;10.00;31.00
1025;DHT22;501;48.214;11.350;2024-01-25T12:19:29;9.90;33.30
1025;DHT22;501;48.214;11.350;2024-01-25T12:21:56;9.90;32.90
1025;DHT22;501;48.214;11.350;2024-01-25T12:24:21;9.90;32.50
1025;DHT22;501;48.214;11.350;2024-01-25T12:26:47;10.00;32.20
1025;DHT22;501;48.214;11.350;2024-01-25T12:29:13;10.10;32.90
1025;DHT22;501;48.214;11.350;2024-01-25T12:31:39;10.10;31.80
1025;DHT22;501;48.214;11.350;2024-01-25T12:34:13;10.20;31.20
1025;DHT22;501;48.214;11.350;2024-01-25T12:36:41;10.30;31.30
1025;DHT22;501;48.214;11.350;2024-01-25T12:39:06;10.40;31.40
1025;DHT22;501;48.214;11.350;2024-01-25T12:41:32;10.50;30.30
1025;DHT22;501;48.214;11.350;2024-01-25T12:43:58;10.50;30.00
1025;DHT22;501;48.214;11.350;2024-01-25T12:46:24;10.60;30.00
1025;DHT22;501;48.214;11.350;2024-01-25T12:48:49;10.60;30.30
1025;DHT22;501;48.214;11.350;2024-01-25T12:51:20;10.70;31.20
1025;DHT22;501;48.214;11.350;2024-01-25T12:53:47;10.70;31.70
1025;DHT22;501;48.214;11.350;2024-01-25T12:56:13;10.80;31.10
1025;DHT22;501;48.214;11.350;2024-01-25T12:58:38;10.80;29.90
1025;DHT22;501;48.214;11.350;2024-01-25T13:01:05;10.80;29.30
1025;DHT22;501;48.214;11.350;2024-01-25T13:03:30;10.80;29.40
1025;DHT22;501;48.214;11.350;2024-01-25T13:05:56;10.80;29.90
1025;DHT22;501;48.214;11.350;2024-01-25T13:08:22;10.70;29.20
1025;DHT22;501;48.214;11.350;2024-01-25T13:10:47;10.70;28.90
1025;DHT22;501;48.214;11.350;2024-01-25T13:13:13;10.60;29.30
1025;DHT22;501;48.214;11.350;2024-01-25T13:15:39;10.50;29.70
1025;DHT22;501;48.214;11.350;2024-01-25T13:18:04;10.40;30.60
1025;DHT22;501;48.214;11.350;2024-01-25T13:20:30;10.50;30.70
1025;DHT22;501;48.214;11.350;2024-01-25T13:22:57;10.60;30.20
1025;DHT22;501;48.214;11.350;2024-01-25T13:25:22;11.10;32.60
1025;DHT22;501;48.214;11.350;2024-01-25T13:27:48;12.10;30.00
1025;DHT22;501;48.214;11.350;2024-01-25T13:30:14;13.20;27.70
1025;DHT22;501;48.214;11.350;2024-01-25T13:32:39;14.20;26.60
1025;DHT22;501;48.214;11.350;2024-01-25T13:35:05;14.70;26.40
1025;DHT22;501;48.214;11.350;2024-01-25T13:37:31;15.10;24.70
1025;DHT22;501;48.214;11.350;2024-01-25T13:39:57;15.30;24.20
1025;DHT22;501;48.214;11.350;2024-01-25T13:42:23;15.40;23.70
1025;DHT22;501;48.214;11.350;2024-01-25T13:44:48;15.30;23.40
1025;DHT22;501;48.214;11.350;2024-01-25T13:47:14;15.00;23.30
1025;DHT22;501;48.214;11.350;2024-01-25T13:49:39;14.30;23.40
1025;DHT22;501;48.214;11.350;2024-01-25T13:52:05;13.90;24.40
1025;DHT22;501;48.214;11.350;2024-01-25T13:54:31;13.50;24.40
1025;DHT22;501;48.214;11.350;2024-01-25T13:56:57;13.00;24.80
1025;DHT22;501;48.214;11.350;2024-01-25T13:59:22;12.60;25.50
1025;DHT22;501;48.214;11.350;2024-01-25T14:01:51;12.30;25.30
1025;DHT22;501;48.214;11.350;2024-01-25T14:04:17;12.10;26.30
1025;DHT22;501;48.214;11.350;2024-01-25T14:06:43;11.90;26.80
1025;DHT22;501;48.214;11.350;2024-01-25T14:09:09;11.80;27.30
1025;DHT22;501;48.214;11.350;2024-01-25T14:11:35;11.90;27.40
1025;DHT22;501;48.214;11.350;2024-01-25T14:14:00;12.00;27.20
1025;DHT22;501;48.214;11.350;2024-01-25T14:16:26;12.10;27.30
1025;DHT22;501;48.214;11.350;2024-01-25T14:18:51;12.10;27.30
1025;DHT22;501;48.214;11.350;2024-01-25T14:21:17;12.30;27.00
1025;DHT22;501;48.214;11.350;2024-01-25T14:23:46;12.70;26.80
1025;DHT22;501;48.214;11.350;2024-01-25T14:26:12;13.00;26.30
1025;DHT22;501;48.214;11.350;2024-01-25T14:28:39;12.80;26.40
1025;DHT22;501;48.214;11.350;2024-01-25T14:31:04;12.50;26.80
1025;DHT22;501;48.214;11.350;2024-01-25T14:33:30;12.20;27.30
1025;DHT22;501;48.214;11.350;2024-01-25T14:35:55;11.90;27.60
1025;DHT22;501;48.214;11.350;2024-01-25T14:38:21;11.70;28.10
1025;DHT22;501;48.214;11.350;2024-01-25T14:40:47;11.40;28.40
1025;DHT22;501;48.214;11.350;2024-01-25T14:43:12;11.30;28.80
1025;DHT22;501;48.214;11.350;2024-01-25T14:45:39;11.10;29.20
1025;DHT22;501;48.214;11.350;2024-01-25T14:48:04;10.90;29.30
1025;DHT22;501;48.214;11.350;2024-01-25T14:50:31;10.70;29.80
1025;DHT22;501;48.214;11.350;2024-01-25T14:52:58;10.70;30.20
1025;DHT22;501;48.214;11.350;2024-01-25T14:55:24;10.60;30.40
1025;DHT22;501;48.214;11.350;2024-01-25T14:57:50;10.50;30.40
1025;DHT22;501;48.214;11.350;2024-01-25T15:00:16;10.50;30.20
1025;DHT22;501;48.214;11.350;2024-01-25T15:02:48;10.40;30.00
1025;DHT22;501;48.214;11.350;2024-01-25T15:05:13;10.30;30.60
1025;DHT22;501;48.214;11.350;2024-01-25T15:07:40;10.20;30.50
1025;DHT22;501;48.214;11.350;2024-01-25T15:10:07;10.10;31.10
1025;DHT22;501;48.214;11.350;2024-01-25T15:12:32;10.10;31.10
1025;DHT22;501;48.214;11.350;2024-01-25T15:14:58;10.00;31.00
1025;DHT22;501;48.214;11.350;2024-01-25T15:17:24;10.00;31.00
1025;DHT22;501;48.214;11.350;2024-01-25T15:19:49;9.90;31.90
1025;DHT22;501;48.214;11.350;2024-01-25T15:22:15;9.90;32.70
1025;DHT22;501;48.214;11.350;2024-01-25T15:24:41;9.90;33.00
1025;DHT22;501;48.214;11.350;2024-01-25T15:27:06;9.80;32.80
1025;DHT22;501;48.214;11.350;2024-01-25T15:29:32;9.80;33.00
1025;DHT22;501;48.214;11.350;2024-01-25T15:31:58;9.80;33.30
1025;DHT22;501;48.214;11.350;2024-01-25T15:34:23;9.80;33.70
1025;DHT22;501;48.214;11.350;2024-01-25T15:36:49;9.70;33.70
1025;DHT22;501;48.214;11.350;2024-01-25T15:39:15;9.70;33.70
1025;DHT22;501;48.214;11.350;2024-01-25T15:41:42;9.70;33.90
1025;DHT22;501;48.214;11.350;2024-01-25T15:44:08;9.60;33.70
1025;DHT22;501;48.214;11.350;2024-01-25T15:46:33;9.60;33.90
1025;DHT22;501;48.214;11.350;2024-01-25T15:48:59;9.60;34.30
1025;DHT22;501;48.214;11.350;2024-01-25T15:51:26;9.50;33.90
1025;DHT22;501;48.214;11.350;2024-01-25T15:53:52;9.50;34.50
1025;DHT22;501;48.214;11.350;2024-01-25T15:56:18;9.50;34.70
1025;DHT22;501;48.214;11.350;2024-01-25T15:58:43;9.40;34.40
1025;DHT22;501;48.214;11.350;2024-01-25T16:01:09;9.40;34.70
1025;DHT22;501;48.214;11.350;2024-01-25T16:03:35;9.30;34.70
1025;DHT22;501;48.214;11.350;2024-01-25T16:06:00;9.30;34.80
1025;DHT22;501;48.214;11.350;2024-01-25T16:08:27;9.20;34.90